sensor_id;sensor_type;location;lat;lon;timestamp;pressure;altitude;pressure_sealevel;temperature;humidity
48872;BME280;36154;51.674;7.824;2022-08-30T00:00:06;101274.53;;;26.68;39.68
48872;BME280;36154;51.674;7.824;2022-08-30T00:02:50;101276.31;;;26.66;39.58
48872;BME280;36154;51.674;7.824;2022-08-30T00:05:16;101278.88;;;26.68;39.41
48872;BME280;36154;51.674;7.824;2022-08-30T00:07:41;101284.09;;;26.68;39.51
48872;BME280;36154;51.674;7.824;2022-08-30T00:10:07;101284.97;;;26.68;39.39
48872;BME280;36154;51.674;7.824;2022-08-30T00:12:32;101288.47;;;26.67;39.64
48872;BME280;36154;51.674;7.824;2022-08-30T00:14:57;101280.72;;;26.65;39.94
48872;BME280;36154;51.674;7.824;2022-08-30T00:17:23;101283.25;;;26.67;39.52
48872;BME280;36154;51.674;7.824;2022-08-30T00:19:48;101280.66;;;26.67;39.76
48872;BME280;36154;51.674;7.824;2022-08-30T00:22:14;101283.25;;;26.67;39.42
48872;BME280;36154;51.674;7.824;2022-08-30T00:24:39;101286.75;;;26.66;39.41
48872;BME280;36154;51.674;7.824;2022-08-30T00:27:05;101283.25;;;26.67;39.88
48872;BME280;36154;51.674;7.824;2022-08-30T00:29:30;101285.88;;;26.67;39.87
48872;BME280;36154;51.674;7.824;2022-08-30T00:31:55;101284.16;;;26.66;39.86
48872;BME280;36154;51.674;7.824;2022-08-30T00:34:21;101266.75;;;26.67;39.76
48872;BME280;36154;51.674;7.824;2022-08-30T00:36:46;101262.38;;;26.67;39.76
48872;BME280;36154;51.674;7.824;2022-08-30T00:39:11;101266.75;;;26.67;39.57
48872;BME280;36154;51.674;7.824;2022-08-30T00:41:36;101268.50;;;26.66;39.92
48872;BME280;36154;51.674;7.824;2022-08-30T00:44:03;101270.25;;;26.65;39.78
48872;BME280;36154;51.674;7.824;2022-08-30T00:46:28;101269.44;;;26.65;39.52
48872;BME280;36154;51.674;7.824;2022-08-30T00:48:54;101269.44;;;26.65;39.77
48872;BME280;36154;51.674;7.824;2022-08-30T00:51:21;101262.50;;;26.64;39.81
48872;BME280;36154;51.674;7.824;2022-08-30T00:53:50;101266.03;;;26.63;39.70
48872;BME280;36154;51.674;7.824;2022-08-30T00:56:17;101266.03;;;26.63;39.53
48872;BME280;36154;51.674;7.824;2022-08-30T00:58:46;101260.91;;;26.60;39.68
48872;BME280;36154;51.674;7.824;2022-08-30T01:01:13;101266.97;;;26.60;39.86
48872;BME280;36154;51.674;7.824;2022-08-30T01:03:39;101265.19;;;26.61;39.48
48872;BME280;36154;51.674;7.824;2022-08-30T01:06:05;101270.47;;;26.59;39.74
48872;BME280;36154;51.674;7.824;2022-08-30T01:08:31;101272.19;;;26.60;39.66
48872;BME280;36154;51.674;7.824;2022-08-30T01:10:58;101270.53;;;26.58;39.79
48872;BME280;36154;51.674;7.824;2022-08-30T01:13:24;101268.78;;;26.58;39.61
48872;BME280;36154;51.674;7.824;2022-08-30T01:15:51;101273.13;;;26.58;39.87
48872;BME280;36154;51.674;7.824;2022-08-30T01:18:17;101268.84;;;26.57;39.78
48872;BME280;36154;51.674;7.824;2022-08-30T01:20:50;101267.91;;;26.58;39.90
48872;BME280;36154;51.674;7.824;2022-08-30T01:23:19;101268.84;;;26.57;39.52
48872;BME280;36154;51.674;7.824;2022-08-30T01:25:47;101269.69;;;26.57;39.84
48872;BME280;36154;51.674;7.824;2022-08-30T01:28:17;101271.47;;;26.57;39.52
48872;BME280;36154;51.674;7.824;2022-08-30T01:30:45;101266.25;;;26.57;39.83
48872;BME280;36154;51.674;7.824;2022-08-30T01:33:10;101272.34;;;26.56;39.51
48872;BME280;36154;51.674;7.824;2022-08-30T01:35:47;101272.34;;;26.56;39.85
48872;BME280;36154;51.674;7.824;2022-08-30T01:38:15;101278.50;;;26.55;39.51
48872;BME280;36154;51.674;7.824;2022-08-30T01:40:42;101276.78;;;26.54;39.76
48872;BME280;36154;51.674;7.824;2022-08-30T01:43:07;101280.31;;;26.53;40.06
48872;BME280;36154;51.674;7.824;2022-08-30T01:45:34;101275.09;;;26.53;40.02
48872;BME280;36154;51.674;7.824;2022-08-30T01:47:59;101274.25;;;26.52;39.98
48872;BME280;36154;51.674;7.824;2022-08-30T01:50:24;101278.63;;;26.52;39.96
48872;BME280;36154;51.674;7.824;2022-08-30T01:52:50;101282.13;;;26.51;39.57
48872;BME280;36154;51.674;7.824;2022-08-30T01:55:15;101276.00;;;26.52;39.67
48872;BME280;36154;51.674;7.824;2022-08-30T01:57:40;101280.31;;;26.53;39.55
48872;BME280;36154;51.674;7.824;2022-08-30T02:00:08;101272.53;;;26.51;39.88
48872;BME280;36154;51.674;7.824;2022-08-30T02:02:33;101268.25;;;26.50;39.99
48872;BME280;36154;51.674;7.824;2022-08-30T02:04:59;101274.31;;;26.51;39.61
48872;BME280;36154;51.674;7.824;2022-08-30T02:07:24;101280.44;;;26.50;39.64
48872;BME280;36154;51.674;7.824;2022-08-30T02:09:50;101283.13;;;26.48;39.83
48872;BME280;36154;51.674;7.824;2022-08-30T02:12:16;101286.56;;;26.48;39.97
48872;BME280;36154;51.674;7.824;2022-08-30T02:14:42;101285.72;;;26.48;39.80
48872;BME280;36154;51.674;7.824;2022-08-30T02:17:10;101281.28;;;26.50;39.61
48872;BME280;36154;51.674;7.824;2022-08-30T02:19:36;101286.56;;;26.48;40.07
48872;BME280;36154;51.674;7.824;2022-08-30T02:22:02;101283.97;;;26.48;39.55
48872;BME280;36154;51.674;7.824;2022-08-30T02:24:28;101283.97;;;26.48;39.72
48872;BME280;36154;51.674;7.824;2022-08-30T02:26:53;101282.25;;;26.47;39.86
48872;BME280;36154;51.674;7.824;2022-08-30T02:29:20;101288.41;;;26.46;39.61
48872;BME280;36154;51.674;7.824;2022-08-30T02:31:46;101290.06;;;26.47;39.87
48872;BME280;36154;51.674;7.824;2022-08-30T02:34:11;101296.22;;;26.46;40.02
48872;BME280;36154;51.674;7.824;2022-08-30T02:36:37;101290.13;;;26.46;39.78
48872;BME280;36154;51.674;7.824;2022-08-30T02:39:05;101289.28;;;26.45;39.96
48872;BME280;36154;51.674;7.824;2022-08-30T02:41:30;101287.59;;;26.44;40.00
48872;BME280;36154;51.674;7.824;2022-08-30T02:43:55;101286.75;;;26.44;39.92
48872;BME280;36154;51.674;7.824;2022-08-30T02:46:23;101283.28;;;26.43;40.14
48872;BME280;36154;51.674;7.824;2022-08-30T02:48:48;101282.38;;;26.44;40.13
48872;BME280;36154;51.674;7.824;2022-08-30T02:51:14;101277.28;;;26.41;39.86
48872;BME280;36154;51.674;7.824;2022-08-30T02:53:41;101267.69;;;26.42;40.10
48872;BME280;36154;51.674;7.824;2022-08-30T02:56:07;101265.94;;;26.42;39.89
48872;BME280;36154;51.674;7.824;2022-08-30T02:58:33;101269.47;;;26.41;39.76
48872;BME280;36154;51.674;7.824;2022-08-30T03:00:58;101275.59;;;26.40;39.77
48872;BME280;36154;51.674;7.824;2022-08-30T03:03:24;101272.97;;;26.40;40.14
48872;BME280;36154;51.674;7.824;2022-08-30T03:05:49;101267.75;;;26.40;40.19
48872;BME280;36154;51.674;7.824;2022-08-30T03:08:15;101263.44;;;26.39;40.07
48872;BME280;36154;51.674;7.824;2022-08-30T03:10:40;101268.66;;;26.39;40.26
48872;BME280;36154;51.674;7.824;2022-08-30T03:13:05;101272.06;;;26.41;40.04
48872;BME280;36154;51.674;7.824;2022-08-30T03:15:35;101265.16;;;26.40;39.80
48872;BME280;36154;51.674;7.824;2022-08-30T03:18:01;101262.53;;;26.40;39.83
48872;BME280;36154;51.674;7.824;2022-08-30T03:20:27;101258.22;;;26.39;40.09
48872;BME280;36154;51.674;7.824;2022-08-30T03:22:52;101263.44;;;26.39;40.17
48872;BME280;36154;51.674;7.824;2022-08-30T03:25:19;101263.38;;;26.41;39.83
48872;BME280;36154;51.674;7.824;2022-08-30T03:27:47;101258.22;;;26.39;39.94
48872;BME280;36154;51.674;7.824;2022-08-30T03:30:15;101258.22;;;26.39;39.95
48872;BME280;36154;51.674;7.824;2022-08-30T03:32:41;101260.00;;;26.39;40.27
48872;BME280;36154;51.674;7.824;2022-08-30T03:35:07;101263.59;;;26.36;40.03
48872;BME280;36154;51.674;7.824;2022-08-30T03:37:33;101265.25;;;26.37;39.80
48872;BME280;36154;51.674;7.824;2022-08-30T03:39:58;101266.19;;;26.36;40.16
48872;BME280;36154;51.674;7.824;2022-08-30T03:42:23;101262.72;;;26.36;40.10
48872;BME280;36154;51.674;7.824;2022-08-30T03:44:49;101267.09;;;26.35;39.90
48872;BME280;36154;51.674;7.824;2022-08-30T03:47:15;101266.25;;;26.35;40.04
48872;BME280;36154;51.674;7.824;2022-08-30T03:49:40;101264.59;;;26.32;40.04
48872;BME280;36154;51.674;7.824;2022-08-30T03:52:06;101269.75;;;26.34;40.43
48872;BME280;36154;51.674;7.824;2022-08-30T03:54:31;101268.91;;;26.33;40.01
48872;BME280;36154;51.674;7.824;2022-08-30T03:56:56;101257.59;;;26.33;40.10
48872;BME280;36154;51.674;7.824;2022-08-30T03:59:22;101248.16;;;26.30;40.02
48872;BME280;36154;51.674;7.824;2022-08-30T04:01:47;101247.25;;;26.31;40.52
48872;BME280;36154;51.674;7.824;2022-08-30T04:04:13;101253.38;;;26.30;40.11
48872;BME280;36154;51.674;7.824;2022-08-30T04:06:39;101262.91;;;26.31;40.35
48872;BME280;36154;51.674;7.824;2022-08-30T04:09:04;101270.75;;;26.31;40.45
48872;BME280;36154;51.674;7.824;2022-08-30T04:11:30;101271.63;;;26.30;40.60
48872;BME280;36154;51.674;7.824;2022-08-30T04:13:55;101275.16;;;26.29;39.90
48872;BME280;36154;51.674;7.824;2022-08-30T04:16:21;101275.16;;;26.29;40.50
48872;BME280;36154;51.674;7.824;2022-08-30T04:18:47;101273.53;;;26.26;40.09
48872;BME280;36154;51.674;7.824;2022-08-30T04:21:12;101279.56;;;26.27;40.35
48872;BME280;36154;51.674;7.824;2022-08-30T04:23:38;101279.56;;;26.27;40.42
48872;BME280;36154;51.674;7.824;2022-08-30T04:26:03;101272.66;;;26.26;40.56
48872;BME280;36154;51.674;7.824;2022-08-30T04:28:28;101276.19;;;26.25;40.40
48872;BME280;36154;51.674;7.824;2022-08-30T04:30:54;101275.34;;;26.24;40.67
48872;BME280;36154;51.674;7.824;2022-08-30T04:33:19;101283.22;;;26.23;40.56
48872;BME280;36154;51.674;7.824;2022-08-30T04:35:47;101277.13;;;26.22;40.66
48872;BME280;36154;51.674;7.824;2022-08-30T04:38:14;101280.66;;;26.21;40.62
48872;BME280;36154;51.674;7.824;2022-08-30T04:40:41;101279.81;;;26.21;40.15
48872;BME280;36154;51.674;7.824;2022-08-30T04:43:07;101285.88;;;26.21;40.45
48872;BME280;36154;51.674;7.824;2022-08-30T04:45:32;101291.09;;;26.21;40.88
48872;BME280;36154;51.674;7.824;2022-08-30T04:47:57;101278.97;;;26.20;40.72
48872;BME280;36154;51.674;7.824;2022-08-30T04:50:23;101285.16;;;26.18;40.62
48872;BME280;36154;51.674;7.824;2022-08-30T04:52:48;101281.63;;;26.19;40.81
48872;BME280;36154;51.674;7.824;2022-08-30T04:55:13;101291.16;;;26.20;40.76
48872;BME280;36154;51.674;7.824;2022-08-30T04:57:40;101281.63;;;26.19;40.42
48872;BME280;36154;51.674;7.824;2022-08-30T05:00:08;101289.44;;;26.19;40.95
48872;BME280;36154;51.674;7.824;2022-08-30T05:02:35;101292.91;;;26.19;40.91
48872;BME280;36154;51.674;7.824;2022-08-30T05:05:01;101286.84;;;26.19;40.51
48872;BME280;36154;51.674;7.824;2022-08-30T05:07:45;101290.38;;;26.18;40.50
48872;BME280;36154;51.674;7.824;2022-08-30T05:10:11;101296.38;;;26.20;40.69
48872;BME280;36154;51.674;7.824;2022-08-30T05:12:36;101291.22;;;26.18;40.68
48872;BME280;36154;51.674;7.824;2022-08-30T05:15:02;101295.59;;;26.18;40.66
48872;BME280;36154;51.674;7.824;2022-08-30T05:17:27;101295.59;;;26.18;40.52
48872;BME280;36154;51.674;7.824;2022-08-30T05:19:53;101306.03;;;26.18;40.94
48872;BME280;36154;51.674;7.824;2022-08-30T05:22:18;101292.38;;;26.11;40.99
48872;BME280;36154;51.674;7.824;2022-08-30T05:24:43;101306.97;;;26.15;40.84
48872;BME280;36154;51.674;7.824;2022-08-30T05:27:08;101300.19;;;26.11;40.80
48872;BME280;36154;51.674;7.824;2022-08-30T05:29:34;101304.47;;;26.12;40.97
48872;BME280;36154;51.674;7.824;2022-08-30T05:31:59;101306.25;;;26.12;40.64
48872;BME280;36154;51.674;7.824;2022-08-30T05:34:25;101310.63;;;26.11;40.49
48872;BME280;36154;51.674;7.824;2022-08-30T05:36:50;101305.41;;;26.11;41.00
48872;BME280;36154;51.674;7.824;2022-08-30T05:39:17;101302.84;;;26.09;41.03
48872;BME280;36154;51.674;7.824;2022-08-30T05:41:42;101308.06;;;26.09;40.72
48872;BME280;36154;51.674;7.824;2022-08-30T05:44:08;101318.50;;;26.09;40.93
48872;BME280;36154;51.674;7.824;2022-08-30T05:46:35;101316.78;;;26.08;41.17
48872;BME280;36154;51.674;7.824;2022-08-30T05:49:03;101311.56;;;26.08;41.16
48872;BME280;36154;51.674;7.824;2022-08-30T05:51:30;101322.00;;;26.08;40.82
48872;BME280;36154;51.674;7.824;2022-08-30T05:53:57;101316.78;;;26.08;41.09
48872;BME280;36154;51.674;7.824;2022-08-30T05:56:25;101315.94;;;26.08;40.74
48872;BME280;36154;51.674;7.824;2022-08-30T05:58:51;101320.28;;;26.07;40.90
48872;BME280;36154;51.674;7.824;2022-08-30T06:01:27;101323.81;;;26.06;41.23
48872;BME280;36154;51.674;7.824;2022-08-30T06:03:54;101316.91;;;26.05;40.87
48872;BME280;36154;51.674;7.824;2022-08-30T06:06:20;101329.88;;;26.07;41.22
48872;BME280;36154;51.674;7.824;2022-08-30T06:08:46;101323.81;;;26.06;41.31
48872;BME280;36154;51.674;7.824;2022-08-30T06:11:14;101329.03;;;26.06;40.95
48872;BME280;36154;51.674;7.824;2022-08-30T06:13:40;101314.28;;;26.05;41.11
48872;BME280;36154;51.674;7.824;2022-08-30T06:16:05;101330.84;;;26.04;41.37
48872;BME280;36154;51.674;7.824;2022-08-30T06:18:31;101323.09;;;26.03;41.35
48872;BME280;36154;51.674;7.824;2022-08-30T06:20:56;101322.22;;;26.02;41.48
48872;BME280;36154;51.674;7.824;2022-08-30T06:23:22;101320.53;;;26.01;41.32
48872;BME280;36154;51.674;7.824;2022-08-30T06:25:48;101323.19;;;26.00;41.05
48872;BME280;36154;51.674;7.824;2022-08-30T06:28:14;101318.00;;;26.00;41.29
48872;BME280;36154;51.674;7.824;2022-08-30T06:30:40;101323.25;;;25.98;41.66
48872;BME280;36154;51.674;7.824;2022-08-30T06:33:10;101320.66;;;25.98;41.26
48872;BME280;36154;51.674;7.824;2022-08-30T06:35:36;101331.97;;;25.97;41.63
48872;BME280;36154;51.674;7.824;2022-08-30T06:38:01;101336.28;;;25.98;41.54
48872;BME280;36154;51.674;7.824;2022-08-30T06:40:27;101339.75;;;25.99;41.50
48872;BME280;36154;51.674;7.824;2022-08-30T06:42:52;101339.75;;;25.99;41.34
48872;BME280;36154;51.674;7.824;2022-08-30T06:45:19;101335.38;;;25.99;41.58
48872;BME280;36154;51.674;7.824;2022-08-30T06:47:44;101340.59;;;25.99;41.58
48872;BME280;36154;51.674;7.824;2022-08-30T06:50:11;101329.25;;;26.00;41.29
48872;BME280;36154;51.674;7.824;2022-08-30T06:52:39;101334.53;;;25.99;41.59
48872;BME280;36154;51.674;7.824;2022-08-30T06:55:05;101337.88;;;26.02;41.81
48872;BME280;36154;51.674;7.824;2022-08-30T06:57:30;101332.66;;;26.02;41.69
48872;BME280;36154;51.674;7.824;2022-08-30T06:59:56;101332.59;;;26.04;41.53
48872;BME280;36154;51.674;7.824;2022-08-30T07:02:22;101338.69;;;26.04;41.92
48872;BME280;36154;51.674;7.824;2022-08-30T07:04:47;101340.38;;;26.05;41.68
48872;BME280;36154;51.674;7.824;2022-08-30T07:07:13;101346.50;;;26.04;41.39
48872;BME280;36154;51.674;7.824;2022-08-30T07:09:39;101337.75;;;26.05;41.51
48872;BME280;36154;51.674;7.824;2022-08-30T07:12:09;101332.53;;;26.05;41.96
48872;BME280;36154;51.674;7.824;2022-08-30T07:14:36;101334.31;;;26.05;41.67
48872;BME280;36154;51.674;7.824;2022-08-30T07:17:01;101338.69;;;26.04;41.71
48872;BME280;36154;51.674;7.824;2022-08-30T07:19:26;101336.91;;;26.05;41.86
48872;BME280;36154;51.674;7.824;2022-08-30T07:21:52;101329.16;;;26.03;41.87
48872;BME280;36154;51.674;7.824;2022-08-30T07:24:18;101329.16;;;26.03;41.87
48872;BME280;36154;51.674;7.824;2022-08-30T07:26:47;101329.16;;;26.03;42.17
48872;BME280;36154;51.674;7.824;2022-08-30T07:29:15;101329.16;;;26.03;41.74
48872;BME280;36154;51.674;7.824;2022-08-30T07:31:40;101333.56;;;26.01;42.12
48872;BME280;36154;51.674;7.824;2022-08-30T07:34:07;101332.69;;;26.01;42.08
48872;BME280;36154;51.674;7.824;2022-08-30T07:36:34;101350.94;;;26.01;41.92
48872;BME280;36154;51.674;7.824;2022-08-30T07:39:00;101348.41;;;25.99;42.25
48872;BME280;36154;51.674;7.824;2022-08-30T07:41:29;101343.19;;;25.99;41.97
48872;BME280;36154;51.674;7.824;2022-08-30T07:43:55;101345.00;;;25.97;42.16
48872;BME280;36154;51.674;7.824;2022-08-30T07:46:21;101342.47;;;25.94;42.38
48872;BME280;36154;51.674;7.824;2022-08-30T07:48:46;101339.88;;;25.94;42.08
48872;BME280;36154;51.674;7.824;2022-08-30T07:51:15;101336.47;;;25.92;42.47
48872;BME280;36154;51.674;7.824;2022-08-30T07:53:40;101334.78;;;25.91;42.63
48872;BME280;36154;51.674;7.824;2022-08-30T07:56:06;101334.78;;;25.91;42.25
48872;BME280;36154;51.674;7.824;2022-08-30T07:58:32;101340.06;;;25.89;42.69
48872;BME280;36154;51.674;7.824;2022-08-30T08:00:58;101337.44;;;25.89;42.63
48872;BME280;36154;51.674;7.824;2022-08-30T08:03:27;101329.69;;;25.88;43.01
48872;BME280;36154;51.674;7.824;2022-08-30T08:05:53;101337.44;;;25.89;42.84
48872;BME280;36154;51.674;7.824;2022-08-30T08:08:20;101338.28;;;25.90;42.82
48872;BME280;36154;51.674;7.824;2022-08-30T08:10:45;101338.28;;;25.90;43.17
48872;BME280;36154;51.674;7.824;2022-08-30T08:13:11;101340.00;;;25.91;42.72
48872;BME280;36154;51.674;7.824;2022-08-30T08:15:37;101335.56;;;25.93;42.87
48872;BME280;36154;51.674;7.824;2022-08-30T08:18:03;101329.53;;;25.92;42.51
48872;BME280;36154;51.674;7.824;2022-08-30T08:20:29;101338.19;;;25.93;42.96
48872;BME280;36154;51.674;7.824;2022-08-30T08:22:54;101329.44;;;25.94;42.86
48872;BME280;36154;51.674;7.824;2022-08-30T08:25:20;101330.28;;;25.96;42.64
48872;BME280;36154;51.674;7.824;2022-08-30T08:27:47;101332.91;;;25.96;42.70
48872;BME280;36154;51.674;7.824;2022-08-30T08:30:15;101333.72;;;25.97;42.24
48872;BME280;36154;51.674;7.824;2022-08-30T08:32:40;101337.97;;;25.99;42.70
48872;BME280;36154;51.674;7.824;2022-08-30T08:35:06;101334.47;;;26.00;42.82
48872;BME280;36154;51.674;7.824;2022-08-30T08:37:31;101340.53;;;26.01;42.63
48872;BME280;36154;51.674;7.824;2022-08-30T08:39:56;101347.44;;;26.02;42.85
48872;BME280;36154;51.674;7.824;2022-08-30T08:42:35;101330.16;;;25.99;42.85
48872;BME280;36154;51.674;7.824;2022-08-30T08:45:14;101341.41;;;26.01;42.52
48872;BME280;36154;51.674;7.824;2022-08-30T08:48:00;101344.00;;;26.01;43.00
48872;BME280;36154;51.674;7.824;2022-08-30T08:50:27;101352.72;;;26.00;42.85
48872;BME280;36154;51.674;7.824;2022-08-30T08:53:03;101344.00;;;26.01;42.79
48872;BME280;36154;51.674;7.824;2022-08-30T08:55:50;101343.06;;;26.02;42.67
48872;BME280;36154;51.674;7.824;2022-08-30T08:58:29;101347.44;;;26.02;42.61
48872;BME280;36154;51.674;7.824;2022-08-30T09:00:56;101351.72;;;26.04;42.47
48872;BME280;36154;51.674;7.824;2022-08-30T09:03:26;101354.31;;;26.04;42.41
48872;BME280;36154;51.674;7.824;2022-08-30T09:05:52;101346.41;;;26.06;42.82
48872;BME280;36154;51.674;7.824;2022-08-30T09:08:20;101348.13;;;26.07;42.85
48872;BME280;36154;51.674;7.824;2022-08-30T09:11:13;101358.56;;;26.07;42.88
48872;BME280;36154;51.674;7.824;2022-08-30T09:13:42;101357.66;;;26.08;42.67
48872;BME280;36154;51.674;7.824;2022-08-30T09:16:07;101354.19;;;26.07;42.71
48872;BME280;36154;51.674;7.824;2022-08-30T09:18:46;101351.59;;;26.07;42.93
48872;BME280;36154;51.674;7.824;2022-08-30T09:21:13;101345.47;;;26.08;42.35
48872;BME280;36154;51.674;7.824;2022-08-30T09:23:53;101343.66;;;26.10;42.33
48872;BME280;36154;51.674;7.824;2022-08-30T09:26:31;101339.38;;;26.09;42.33
48872;BME280;36154;51.674;7.824;2022-08-30T09:28:56;101344.56;;;26.09;42.56
48872;BME280;36154;51.674;7.824;2022-08-30T09:31:33;101346.25;;;26.10;42.20
48872;BME280;36154;51.674;7.824;2022-08-30T09:34:16;101341.03;;;26.10;42.71
48872;BME280;36154;51.674;7.824;2022-08-30T09:36:43;101348.81;;;26.12;42.56
48872;BME280;36154;51.674;7.824;2022-08-30T09:39:27;101338.31;;;26.14;42.32
48872;BME280;36154;51.674;7.824;2022-08-30T09:41:53;101339.22;;;26.13;42.12
48872;BME280;36154;51.674;7.824;2022-08-30T09:44:36;101347.88;;;26.15;42.05
48872;BME280;36154;51.674;7.824;2022-08-30T09:47:03;101337.44;;;26.15;42.13
48872;BME280;36154;51.674;7.824;2022-08-30T09:49:36;101334.78;;;26.16;42.17
48872;BME280;36154;51.674;7.824;2022-08-30T10:00:18;101323.19;;;26.23;42.22
48872;BME280;36154;51.674;7.824;2022-08-30T10:02:55;101330.13;;;26.24;42.27
48872;BME280;36154;51.674;7.824;2022-08-30T10:08:44;101323.91;;;26.27;41.99
48872;BME280;36154;51.674;7.824;2022-08-30T10:17:07;101307.25;;;26.31;42.29
48872;BME280;36154;51.674;7.824;2022-08-30T10:22:11;101313.19;;;26.35;41.82
48872;BME280;36154;51.674;7.824;2022-08-30T10:24:44;101315.75;;;26.36;41.81
48872;BME280;36154;51.674;7.824;2022-08-30T10:27:19;101307.00;;;26.37;42.17
48872;BME280;36154;51.674;7.824;2022-08-30T10:29:50;101307.78;;;26.39;41.71
48872;BME280;36154;51.674;7.824;2022-08-30T10:35:05;101308.59;;;26.41;42.24
48872;BME280;36154;51.674;7.824;2022-08-30T10:37:37;101315.50;;;26.42;42.05
48872;BME280;36154;51.674;7.824;2022-08-30T10:40:14;101306.78;;;26.43;41.92
48872;BME280;36154;51.674;7.824;2022-08-30T10:43:03;101310.16;;;26.45;41.63
48872;BME280;36154;51.674;7.824;2022-08-30T10:45:36;101312.78;;;26.45;41.37
48872;BME280;36154;51.674;7.824;2022-08-30T10:48:13;101312.72;;;26.47;41.31
48872;BME280;36154;51.674;7.824;2022-08-30T10:50:45;101307.50;;;26.47;41.21
48872;BME280;36154;51.674;7.824;2022-08-30T10:53:15;101307.44;;;26.48;41.35
48872;BME280;36154;51.674;7.824;2022-08-30T10:56:03;101299.63;;;26.48;41.39
48872;BME280;36154;51.674;7.824;2022-08-30T10:58:29;101310.06;;;26.48;41.14
48872;BME280;36154;51.674;7.824;2022-08-30T11:06:20;101303.00;;;26.51;41.29
48872;BME280;36154;51.674;7.824;2022-08-30T11:09:07;101289.19;;;26.48;41.08
48872;BME280;36154;51.674;7.824;2022-08-30T11:14:28;101297.78;;;26.51;40.99
48872;BME280;36154;51.674;7.824;2022-08-30T11:16:55;101296.09;;;26.50;40.98
48872;BME280;36154;51.674;7.824;2022-08-30T11:19:26;101289.06;;;26.52;40.49
48872;BME280;36154;51.674;7.824;2022-08-30T11:25:08;101301.19;;;26.53;40.16
48872;BME280;36154;51.674;7.824;2022-08-30T11:27:46;101292.44;;;26.54;40.61
48872;BME280;36154;51.674;7.824;2022-08-30T11:33:44;101283.72;;;26.55;40.26
48872;BME280;36154;51.674;7.824;2022-08-30T11:35:49;101281.13;;;26.55;40.47
48872;BME280;36154;51.674;7.824;2022-08-30T11:44:11;101286.13;;;26.59;39.90
48872;BME280;36154;51.674;7.824;2022-08-30T11:46:39;101287.00;;;26.60;40.44
48872;BME280;36154;51.674;7.824;2022-08-30T11:59:52;101270.19;;;26.67;40.28
48872;BME280;36154;51.674;7.824;2022-08-30T12:02:54;101270.19;;;26.67;40.40
48872;BME280;36154;51.674;7.824;2022-08-30T12:16:15;101270.88;;;26.72;39.73
48872;BME280;36154;51.674;7.824;2022-08-30T12:18:47;101262.13;;;26.73;39.87
48872;BME280;36154;51.674;7.824;2022-08-30T12:23:51;101267.19;;;26.76;39.78
48872;BME280;36154;51.674;7.824;2022-08-30T12:28:50;101266.38;;;26.76;40.08
48872;BME280;36154;51.674;7.824;2022-08-30T12:31:20;101258.47;;;26.77;39.71
48872;BME280;36154;51.674;7.824;2022-08-30T12:33:53;101253.19;;;26.79;39.83
48872;BME280;36154;51.674;7.824;2022-08-30T12:39:24;101253.06;;;26.82;39.64
48872;BME280;36154;51.674;7.824;2022-08-30T12:41:50;101258.09;;;26.87;39.82
48872;BME280;36154;51.674;7.824;2022-08-30T12:44:22;101255.44;;;26.88;40.02
48872;BME280;36154;51.674;7.824;2022-08-30T12:46:52;101251.00;;;26.90;39.93
48872;BME280;36154;51.674;7.824;2022-08-30T12:49:19;101250.94;;;26.92;39.74
48872;BME280;36154;51.674;7.824;2022-08-30T12:51:47;101243.88;;;26.94;39.69
48872;BME280;36154;51.674;7.824;2022-08-30T12:54:20;101240.38;;;26.95;39.35
48872;BME280;36154;51.674;7.824;2022-08-30T12:59:40;101237.59;;;26.98;39.36
48872;BME280;36154;51.674;7.824;2022-08-30T13:02:24;101241.06;;;26.98;39.48
48872;BME280;36154;51.674;7.824;2022-08-30T13:04:52;101243.63;;;27.00;39.67
48872;BME280;36154;51.674;7.824;2022-08-30T13:07:30;101247.00;;;27.02;39.65
48872;BME280;36154;51.674;7.824;2022-08-30T13:10:14;101235.63;;;27.03;39.40
48872;BME280;36154;51.674;7.824;2022-08-30T13:13:04;101229.50;;;27.04;39.33
48872;BME280;36154;51.674;7.824;2022-08-30T13:15:41;101227.66;;;27.06;39.10
48872;BME280;36154;51.674;7.824;2022-08-30T13:18:26;101229.38;;;27.07;39.16
48872;BME280;36154;51.674;7.824;2022-08-30T13:23:46;101229.31;;;27.09;39.50
48872;BME280;36154;51.674;7.824;2022-08-30T13:26:11;101226.72;;;27.09;39.29
48872;BME280;36154;51.674;7.824;2022-08-30T13:31:12;101218.81;;;27.10;39.08
48872;BME280;36154;51.674;7.824;2022-08-30T13:33:37;101220.47;;;27.11;39.05
48872;BME280;36154;51.674;7.824;2022-08-30T13:36:03;101222.13;;;27.14;39.18
48872;BME280;36154;51.674;7.824;2022-08-30T13:38:28;101212.47;;;27.16;39.05
48872;BME280;36154;51.674;7.824;2022-08-30T13:40:53;101216.78;;;27.17;38.84
48872;BME280;36154;51.674;7.824;2022-08-30T13:43:19;101215.84;;;27.18;38.76
48872;BME280;36154;51.674;7.824;2022-08-30T13:45:44;101214.88;;;27.20;38.99
48872;BME280;36154;51.674;7.824;2022-08-30T13:48:10;101210.50;;;27.21;38.78
48872;BME280;36154;51.674;7.824;2022-08-30T13:50:36;101206.97;;;27.22;38.62
48872;BME280;36154;51.674;7.824;2022-08-30T13:53:02;101207.81;;;27.23;38.77
48872;BME280;36154;51.674;7.824;2022-08-30T13:55:27;101212.06;;;27.25;38.72
48872;BME280;36154;51.674;7.824;2022-08-30T13:57:52;101216.44;;;27.25;38.36
48872;BME280;36154;51.674;7.824;2022-08-30T14:00:18;101205.00;;;27.27;38.74
48872;BME280;36154;51.674;7.824;2022-08-30T14:02:46;101212.81;;;27.29;38.62
48872;BME280;36154;51.674;7.824;2022-08-30T14:05:12;101209.25;;;27.30;38.75
48872;BME280;36154;51.674;7.824;2022-08-30T14:07:37;101206.53;;;27.33;38.57
48872;BME280;36154;51.674;7.824;2022-08-30T14:10:03;101196.00;;;27.34;38.54
48872;BME280;36154;51.674;7.824;2022-08-30T14:12:29;101211.56;;;27.37;38.44
48872;BME280;36154;51.674;7.824;2022-08-30T14:14:54;101204.47;;;27.39;38.33